createdAt,value
2023-01-25T00:00:12.305Z,0.80
2023-01-25T00:04:14.361Z,0.80
2023-01-25T00:08:16.660Z,0.70
2023-01-25T00:12:18.424Z,0.80
2023-01-25T00:16:20.278Z,0.70
2023-01-25T00:20:22.055Z,0.80
2023-01-25T00:24:25.578Z,0.80
2023-01-25T00:28:27.326Z,0.80
2023-01-25T00:32:37.848Z,0.80
2023-01-25T00:36:41.110Z,0.80
2023-01-25T00:40:42.857Z,0.80
2023-01-25T00:44:44.714Z,0.70
2023-01-25T00:48:46.634Z,0.70
2023-01-25T00:52:48.349Z,0.80
2023-01-25T00:56:53.713Z,0.80
2023-01-25T01:00:56.754Z,0.80
2023-01-25T01:04:58.945Z,0.80
2023-01-25T01:09:00.732Z,0.70
2023-01-25T01:13:02.538Z,0.80
2023-01-25T01:17:04.293Z,0.90
2023-01-25T01:21:08.101Z,0.80
2023-01-25T01:25:10.889Z,0.80
2023-01-25T01:29:13.040Z,0.90
2023-01-25T01:33:14.747Z,1.00
2023-01-25T01:37:16.516Z,1.00
2023-01-25T01:41:19.272Z,0.90
2023-01-25T01:45:49.219Z,1.00
2023-01-25T01:49:55.419Z,0.90
2023-01-25T01:54:19.223Z,1.00
2023-01-25T01:58:21.044Z,0.80
2023-01-25T02:02:26.103Z,0.90
2023-01-25T02:06:52.631Z,1.00
2023-01-25T02:10:54.600Z,0.90
2023-01-25T02:14:56.262Z,0.90
2023-01-25T02:19:02.090Z,0.90
2023-01-25T02:23:18.828Z,0.90
2023-01-25T02:27:21.208Z,0.80
2023-01-25T02:31:23.070Z,0.80
2023-01-25T02:35:37.874Z,0.70
2023-01-25T02:39:41.017Z,0.60
2023-01-25T02:43:42.805Z,0.60
2023-01-25T02:47:44.547Z,0.60
2023-01-25T02:51:52.228Z,0.70
2023-01-25T02:55:53.920Z,0.60
2023-01-25T02:59:55.640Z,0.70
2023-01-25T03:03:57.332Z,0.60
2023-01-25T03:07:59.041Z,0.60
2023-01-25T03:12:00.777Z,0.50
2023-01-25T03:16:05.941Z,0.40
2023-01-25T03:20:08.097Z,0.40
2023-01-25T03:24:10.434Z,0.40
2023-01-25T03:28:12.272Z,0.40
2023-01-25T03:32:13.961Z,0.40
2023-01-25T03:36:15.714Z,0.40
2023-01-25T03:40:17.581Z,0.50
2023-01-25T03:44:19.303Z,0.40
2023-01-25T03:48:21.879Z,0.40
2023-01-25T03:52:24.534Z,0.30
2023-01-25T03:56:26.451Z,0.30
2023-01-25T04:00:28.178Z,0.40
2023-01-25T04:04:29.815Z,0.50
2023-01-25T04:08:32.032Z,0.60
2023-01-25T04:12:33.764Z,0.60
2023-01-25T04:16:36.143Z,0.70
2023-01-25T04:20:37.961Z,0.80
2023-01-25T04:24:39.687Z,0.80
2023-01-25T04:28:41.652Z,0.70
2023-01-25T04:32:43.401Z,0.70
2023-01-25T04:36:45.236Z,0.60
2023-01-25T04:40:46.982Z,0.70
2023-01-25T04:44:48.740Z,0.70
2023-01-25T04:48:50.444Z,0.70
2023-01-25T04:52:52.727Z,0.80
2023-01-25T04:56:54.518Z,0.90
2023-01-25T05:01:01.358Z,0.90
2023-01-25T05:05:03.429Z,0.70
2023-01-25T05:09:05.156Z,0.70
2023-01-25T05:13:06.911Z,0.80
2023-01-25T05:17:08.867Z,0.90
2023-01-25T05:21:30.537Z,0.90
2023-01-25T05:25:50.744Z,0.90
2023-01-25T05:29:52.512Z,0.90
2023-01-25T05:33:54.202Z,0.80
2023-01-25T05:37:59.516Z,0.80
2023-01-25T05:42:01.287Z,0.80
2023-01-25T05:46:02.960Z,0.80
2023-01-25T05:50:05.521Z,0.90
2023-01-25T05:54:12.289Z,1.00
2023-01-25T05:58:13.907Z,1.00
2023-01-25T06:02:15.632Z,0.90
2023-01-25T06:06:17.455Z,0.80
2023-01-25T06:10:19.220Z,0.90
2023-01-25T06:14:20.843Z,0.90
2023-01-25T06:18:24.443Z,0.90
2023-01-25T06:22:26.129Z,0.90
2023-01-25T06:26:27.863Z,0.90
2023-01-25T06:30:29.769Z,0.90
2023-01-25T06:34:31.814Z,1.00
2023-01-25T06:38:33.880Z,1.00
2023-01-25T06:42:35.544Z,1.10
2023-01-25T06:46:37.466Z,1.10
2023-01-25T06:50:40.726Z,1.20
2023-01-25T06:54:42.420Z,1.00
2023-01-25T06:58:44.573Z,0.90
2023-01-25T07:02:46.211Z,0.90
2023-01-25T07:06:47.870Z,1.00
2023-01-25T07:10:57.121Z,0.90
2023-01-25T07:14:58.832Z,0.90
2023-01-25T07:19:00.514Z,0.90
2023-01-25T07:23:02.422Z,0.80
2023-01-25T07:27:04.113Z,0.90
2023-01-25T07:31:07.331Z,0.90
2023-01-25T07:35:09.566Z,1.00
2023-01-25T07:39:11.783Z,1.00
2023-01-25T07:43:13.502Z,0.90
2023-01-25T07:47:15.378Z,1.00
2023-01-25T07:51:22.649Z,1.00
2023-01-25T07:55:25.201Z,0.90
2023-01-25T07:59:27.238Z,0.70
2023-01-25T08:03:28.942Z,0.80
2023-01-25T08:07:30.652Z,0.80
2023-01-25T08:11:32.806Z,0.70
2023-01-25T08:15:34.779Z,0.80
2023-01-25T08:19:36.595Z,0.60
2023-01-25T08:23:38.291Z,0.60
2023-01-25T08:27:40.008Z,0.60
2023-01-25T08:31:43.938Z,0.60
2023-01-25T08:35:56.193Z,0.50
2023-01-25T08:39:59.723Z,0.60
2023-01-25T08:44:01.597Z,0.50
2023-01-25T08:48:03.504Z,0.50
2023-01-25T08:52:05.257Z,0.50
2023-01-25T08:56:09.297Z,0.40
2023-01-25T09:00:12.090Z,0.50
2023-01-25T09:04:13.999Z,0.50
2023-01-25T09:08:15.712Z,0.50
2023-01-25T09:12:17.455Z,0.60
2023-01-25T09:16:28.269Z,0.80
2023-01-25T09:20:33.214Z,0.80
2023-01-25T09:24:37.443Z,0.70
2023-01-25T09:28:39.158Z,0.70
2023-01-25T09:32:40.919Z,0.70
2023-01-25T09:36:42.930Z,0.60
2023-01-25T09:41:08.575Z,0.60
2023-01-25T09:45:31.621Z,0.70
2023-01-25T09:49:48.244Z,0.70
2023-01-25T09:53:53.371Z,0.70
2023-01-25T09:58:00.010Z,0.70
2023-01-25T10:02:27.810Z,0.60
2023-01-25T10:06:35.839Z,0.60
2023-01-25T10:10:41.276Z,0.80
2023-01-25T10:14:43.074Z,0.80
2023-01-25T10:18:47.626Z,0.80
2023-01-25T10:23:12.062Z,0.60
2023-01-25T10:27:28.245Z,0.70
2023-01-25T10:31:44.131Z,0.70
2023-01-25T10:35:48.352Z,0.70
2023-01-25T10:40:14.741Z,0.70
2023-01-25T10:44:24.204Z,0.70
2023-01-25T10:48:37.263Z,0.80
2023-01-25T10:52:39.009Z,0.90
2023-01-25T10:56:42.204Z,1.00
2023-01-25T11:00:50.997Z,1.00
2023-01-25T11:04:52.719Z,1.00
2023-01-25T11:08:54.437Z,1.10
2023-01-25T11:13:15.118Z,1.10
2023-01-25T11:17:31.475Z,1.10
2023-01-25T11:21:34.726Z,1.10
2023-01-25T11:25:36.929Z,1.10
2023-01-25T11:29:38.704Z,1.00
2023-01-25T11:33:41.806Z,1.20
2023-01-25T11:38:12.447Z,1.20
2023-01-25T11:42:35.759Z,1.00
2023-01-25T11:46:49.989Z,1.10
2023-01-25T11:51:10.323Z,1.10
2023-01-25T11:55:30.337Z,1.20
2023-01-25T11:59:53.011Z,1.30
2023-01-25T12:04:17.688Z,1.30
2023-01-25T12:08:27.134Z,1.20
2023-01-25T12:12:43.085Z,1.30
2023-01-25T12:17:03.395Z,1.20
2023-01-25T12:21:36.078Z,1.10
2023-01-25T12:25:56.068Z,1.10
2023-01-25T12:30:10.831Z,1.20
2023-01-25T12:34:33.089Z,1.20
2023-01-25T12:38:55.030Z,1.20
2023-01-25T12:42:58.828Z,1.20
2023-01-25T12:47:10.360Z,1.20
2023-01-25T12:51:13.074Z,1.30
2023-01-25T12:55:17.451Z,1.20
2023-01-25T12:59:30.041Z,1.00
2023-01-25T13:03:56.766Z,1.10
2023-01-25T13:08:01.262Z,1.10
2023-01-25T13:12:04.635Z,1.10
2023-01-25T13:16:32.260Z,1.20
2023-01-25T13:20:39.893Z,1.20
2023-01-25T13:25:03.763Z,1.30
2023-01-25T13:29:42.813Z,1.30
2023-01-25T13:33:44.613Z,1.20
2023-01-25T13:38:09.081Z,1.20
2023-01-25T13:42:10.655Z,1.20
2023-01-25T13:46:15.936Z,1.20
2023-01-25T13:50:23.797Z,1.20
2023-01-25T13:54:25.478Z,1.30
2023-01-25T13:58:36.278Z,1.40
2023-01-25T14:02:40.380Z,1.20
2023-01-25T14:06:42.134Z,1.30
2023-01-25T14:10:44.551Z,1.30
2023-01-25T14:14:49.281Z,1.30
2023-01-25T14:18:51.006Z,1.30
2023-01-25T14:22:52.704Z,1.30
2023-01-25T14:26:54.383Z,1.10
2023-01-25T14:30:58.469Z,1.10
2023-01-25T14:39:59.813Z,1.10
2023-01-25T14:44:13.338Z,1.20
2023-01-25T14:48:33.787Z,1.00
2023-01-25T14:52:35.655Z,0.90
2023-01-25T14:56:45.129Z,0.90
2023-01-25T15:00:54.662Z,1.00
2023-01-25T15:05:15.034Z,0.80
2023-01-25T15:09:31.672Z,0.80
2023-01-25T15:13:33.369Z,0.80
2023-01-25T15:17:41.089Z,0.70
2023-01-25T15:21:42.774Z,0.80
2023-01-25T15:25:59.280Z,1.00
2023-01-25T15:30:00.878Z,1.00
2023-01-25T15:34:03.184Z,1.10
2023-01-25T15:38:06.001Z,1.10
2023-01-25T15:42:08.929Z,1.00
2023-01-25T15:46:26.017Z,0.90
2023-01-25T15:50:29.087Z,0.90
2023-01-25T15:54:30.749Z,0.90
2023-01-25T15:58:40.919Z,0.90
2023-01-25T16:02:42.620Z,0.90
2023-01-25T16:06:50.003Z,0.90
2023-01-25T16:10:51.693Z,0.90
2023-01-25T16:14:53.468Z,0.90
2023-01-25T16:18:55.105Z,0.90
2023-01-25T16:22:56.896Z,0.90
2023-01-25T16:27:00.455Z,0.80
2023-01-25T16:31:02.147Z,0.90
2023-01-25T16:35:03.993Z,0.80
2023-01-25T16:39:19.973Z,0.60
2023-01-25T16:43:21.872Z,0.70
2023-01-25T16:47:24.525Z,0.70
2023-01-25T16:51:28.437Z,0.70
2023-01-25T16:55:30.071Z,0.60
2023-01-25T16:59:31.818Z,0.70
2023-01-25T17:03:33.561Z,0.60
2023-01-25T17:07:35.844Z,0.50
2023-01-25T17:11:38.301Z,0.50
2023-01-25T17:15:39.956Z,0.50
2023-01-25T17:19:41.649Z,0.50
2023-01-25T17:23:43.722Z,0.40
2023-01-25T17:27:45.352Z,0.30
2023-01-25T17:31:47.412Z,0.40
2023-01-25T17:35:49.222Z,0.50
2023-01-25T17:39:50.894Z,0.40
2023-01-25T17:43:52.972Z,0.50
2023-01-25T17:47:54.667Z,0.40
2023-01-25T17:51:56.443Z,0.40
2023-01-25T17:56:03.152Z,0.40
2023-01-25T18:00:06.594Z,0.30
2023-01-25T18:04:09.127Z,0.30
2023-01-25T18:08:11.450Z,0.20
2023-01-25T18:12:13.120Z,0.10
2023-01-25T18:16:17.085Z,0.20
2023-01-25T18:20:19.509Z,0.20
2023-01-25T18:24:35.901Z,0.20
2023-01-25T18:28:38.350Z,0.20
2023-01-25T18:32:40.011Z,0.20
2023-01-25T18:36:41.675Z,0.20
2023-01-25T18:40:47.205Z,0.10
2023-01-25T18:44:49.175Z,0.10
2023-01-25T18:48:51.045Z,0.00
2023-01-25T18:52:54.142Z,0.00
2023-01-25T18:56:55.834Z,0.00
2023-01-25T19:01:15.039Z,0.00
2023-01-25T19:05:18.571Z,0.10
2023-01-25T19:09:20.330Z,0.10
2023-01-25T19:13:22.013Z,0.00
2023-01-25T19:17:23.807Z,-0.10
2023-01-25T19:21:27.750Z,0.00
2023-01-25T19:25:30.512Z,0.00
2023-01-25T19:29:32.271Z,0.00
2023-01-25T19:33:34.447Z,0.00
2023-01-25T19:37:36.090Z,0.00
2023-01-25T19:41:38.805Z,0.00
2023-01-25T19:45:40.599Z,0.00
2023-01-25T19:49:42.264Z,-0.10
2023-01-25T19:53:46.437Z,-0.20
2023-01-25T19:57:48.153Z,-0.20
2023-01-25T20:01:50.062Z,-0.10
2023-01-25T20:05:59.076Z,-0.10
2023-01-25T20:10:00.740Z,0.00
2023-01-25T20:14:05.181Z,0.00
2023-01-25T20:18:06.817Z,-0.10
2023-01-25T20:22:08.633Z,-0.10
2023-01-25T20:26:19.334Z,-0.20
2023-01-25T20:30:21.041Z,-0.20
2023-01-25T20:34:23.709Z,-0.30
2023-01-25T20:38:29.994Z,-0.20
2023-01-25T20:42:31.667Z,-0.20
2023-01-25T20:46:34.544Z,-0.30
2023-01-25T20:50:36.223Z,-0.30
2023-01-25T20:54:38.143Z,-0.30
2023-01-25T20:58:39.797Z,-0.20
2023-01-25T21:02:41.448Z,-0.10
2023-01-25T21:06:43.136Z,-0.20
2023-01-25T21:10:50.410Z,-0.20
2023-01-25T21:14:52.134Z,-0.20
2023-01-25T21:18:57.428Z,0.00
2023-01-25T21:22:59.108Z,-0.20
2023-01-25T21:27:00.760Z,-0.30
2023-01-25T21:31:14.903Z,-0.20
2023-01-25T21:35:16.551Z,-0.30
2023-01-25T21:39:18.155Z,-0.30
2023-01-25T21:43:19.881Z,-0.20
2023-01-25T21:47:30.501Z,-0.30
2023-01-25T21:51:35.293Z,-0.30
2023-01-25T21:55:36.916Z,-0.40
2023-01-25T21:59:40.649Z,-0.40
2023-01-25T22:03:42.324Z,-0.40
2023-01-25T22:07:43.954Z,-0.40
2023-01-25T22:11:45.867Z,-0.60
2023-01-25T22:15:47.598Z,-0.60
2023-01-25T22:19:49.318Z,-0.70
2023-01-25T22:23:51.778Z,-0.50
2023-01-25T22:28:00.043Z,-0.50
2023-01-25T22:32:02.165Z,-0.40
2023-01-25T22:36:04.675Z,-0.50
2023-01-25T22:40:07.425Z,-0.40
2023-01-25T22:44:09.775Z,-0.40
2023-01-25T22:48:11.389Z,-0.60
2023-01-25T22:52:13.039Z,-0.60
2023-01-25T22:56:18.610Z,-0.50
2023-01-25T23:00:20.472Z,-0.50
2023-01-25T23:04:22.308Z,-0.60
2023-01-25T23:08:24.014Z,-0.60
2023-01-25T23:12:25.681Z,-0.60
2023-01-25T23:16:27.379Z,-0.60
2023-01-25T23:20:29.935Z,-0.70
2023-01-25T23:24:31.685Z,-0.70
2023-01-25T23:28:33.401Z,-0.70
2023-01-25T23:32:35.126Z,-0.60
2023-01-25T23:36:42.151Z,-0.60
2023-01-25T23:40:44.532Z,-0.60
2023-01-25T23:44:46.272Z,-0.60
2023-01-25T23:48:48.040Z,-0.60
2023-01-25T23:52:49.777Z,-0.80
2023-01-25T23:56:51.428Z,-0.70
